Time;durP1;ratioP1;P1;durP2;ratioP2;P2;SDS_P1;SDS_P2;PMS_P1;PMS_P2;Temp;Humidity;BMP_temperature;BMP_pressure;BME280_temperature;BME280_humidity;BME280_pressure;Samples;Min_cycle;Max_cycle;Signal;HPM_P1;HPM_P2
2022/05/09 00:00:51;;;;;;;11.35;7.22;;;;;;;10.48;66.33;101177.34;2277506;76;20943;-83
2022/05/09 00:03:52;;;;;;;13.15;7.12;;;;;;;10.45;66.23;101175.80;2279530;77;20971;-84
2022/05/09 00:06:53;;;;;;;13.13;7.78;;;;;;;10.41;66.17;101181.02;2280755;76;20923;-85
2022/05/09 00:09:55;;;;;;;14.38;6.67;;;;;;;10.35;66.25;101180.75;2276223;77;20964;-84
2022/05/09 00:12:56;;;;;;;11.75;7.65;;;;;;;10.29;66.28;101180.33;2283461;77;21417;-83
2022/05/09 00:15:57;;;;;;;13.70;7.10;;;;;;;10.26;66.36;101179.25;2281245;76;20943;-83
2022/05/09 00:18:58;;;;;;;12.03;7.45;;;;;;;10.24;66.33;101179.87;2282350;77;20948;-84
2022/05/09 00:22:00;;;;;;;17.12;7.97;;;;;;;10.24;66.21;101185.17;2286352;76;20983;-86
2022/05/09 00:25:01;;;;;;;10.85;6.90;;;;;;;10.26;66.34;101183.23;2282794;77;21114;-87
2022/05/09 00:28:02;;;;;;;14.73;7.62;;;;;;;10.28;66.17;101187.95;2279276;77;21453;-86
2022/05/09 00:31:04;;;;;;;14.55;7.95;;;;;;;10.29;66.15;101186.96;2278849;77;21014;-82
2022/05/09 00:34:07;;;;;;;13.72;6.90;;;;;;;10.27;65.95;101186.25;2279597;77;21137;-83
2022/05/09 00:37:08;;;;;;;15.15;7.20;;;;;;;10.29;65.89;101188.28;2277853;77;21034;-85
2022/05/09 00:40:13;;;;;;;16.23;7.03;;;;;;;10.28;65.92;101193.25;2283191;77;20940;-85
2022/05/09 00:43:36;;;;;;;12.53;7.40;;;;;;;10.23;65.81;101191.95;2281556;77;21262;-86
2022/05/09 00:46:44;;;;;;;12.95;7.72;;;;;;;10.14;65.74;101197.61;2281847;77;20998;-85
2022/05/09 00:49:50;;;;;;;14.73;7.25;;;;;;;10.14;65.74;101196.77;2279475;76;21101;-84
2022/05/09 00:53:02;;;;;;;14.45;7.08;;;;;;;10.12;65.68;101199.55;2284968;77;21525;-83
2022/05/09 00:56:09;;;;;;;15.50;7.47;;;;;;;10.12;65.69;101205.34;2292607;77;21010;-82
2022/05/09 00:59:14;;;;;;;11.57;7.50;;;;;;;10.13;65.64;101206.52;2294613;77;21001;-86
2022/05/09 01:02:17;;;;;;;12.03;6.90;;;;;;;10.11;65.58;101209.81;2292423;77;21034;-83
2022/05/09 01:05:18;;;;;;;14.47;7.42;;;;;;;10.08;65.51;101207.45;2289334;76;20997;-82
2022/05/09 01:08:21;;;;;;;14.20;7.25;;;;;;;10.08;65.51;101219.38;2295006;77;20934;-83
2022/05/09 01:11:25;;;;;;;13.13;7.30;;;;;;;10.04;65.32;101217.46;2291729;77;21434;-83
2022/05/09 01:14:34;;;;;;;14.20;7.55;;;;;;;9.90;65.25;101212.55;2292899;77;21042;-84
2022/05/09 01:17:39;;;;;;;17.85;7.67;;;;;;;9.83;65.34;101214.91;2293504;76;21005;-86
2022/05/09 01:20:39;;;;;;;15.10;7.35;;;;;;;9.79;65.21;101212.66;2294557;77;21535;-85
2022/05/09 01:23:40;;;;;;;11.70;7.97;;;;;;;9.71;65.22;101216.46;2295525;77;20974;-83
2022/05/09 01:26:43;;;;;;;19.23;7.53;;;;;;;9.65;65.29;101215.19;2294856;77;20968;-84
2022/05/09 01:29:59;;;;;;;15.30;7.75;;;;;;;9.49;65.50;101223.65;2297220;76;21556;-87
2022/05/09 01:33:13;;;;;;;18.00;8.48;;;;;;;9.27;65.49;101225.98;2292872;77;21017;-82
2022/05/09 01:36:18;;;;;;;15.68;7.25;;;;;;;9.13;65.60;101221.85;2293404;77;21068;-82
2022/05/09 01:39:19;;;;;;;15.48;8.03;;;;;;;9.02;65.60;101224.57;2284915;77;20958;-88
2022/05/09 01:42:21;;;;;;;23.27;8.05;;;;;;;8.96;65.87;101225.93;2290918;77;21010;-83
2022/05/09 01:45:22;;;;;;;17.62;7.58;;;;;;;8.85;65.92;101225.98;2294201;77;21005;-85
2022/05/09 01:51:46;;;;;;;12.93;6.55;;;;;;;8.65;66.24;101238.73;2291386;77;21045;-84
2022/05/09 01:54:48;;;;;;;16.00;7.40;;;;;;;8.49;66.26;101238.65;2286504;76;21037;-85
2022/05/09 01:57:49;;;;;;;14.45;6.50;;;;;;;8.41;66.39;101241.56;2282482;77;21547;-85
2022/05/09 02:00:50;;;;;;;20.08;7.85;;;;;;;8.36;66.53;101237.09;2279151;76;20958;-84
2022/05/09 02:03:52;;;;;;;13.05;7.08;;;;;;;8.25;66.68;101234.00;2284309;77;21081;-84
2022/05/09 02:06:55;;;;;;;14.65;7.78;;;;;;;8.19;67.14;101239.79;2280170;77;21005;-82
2022/05/09 02:09:56;;;;;;;10.32;6.28;;;;;;;8.15;66.87;101240.53;2277480;77;20937;-83
2022/05/09 02:12:57;;;;;;;12.58;6.85;;;;;;;8.17;66.88;101241.25;2277087;76;21028;-86
2022/05/09 02:15:58;;;;;;;14.07;6.25;;;;;;;8.21;66.93;101248.45;2282799;77;20942;-83
2022/05/09 02:18:59;;;;;;;12.75;6.47;;;;;;;8.21;66.77;101235.23;2282126;76;21366;-84
2022/05/09 02:22:01;;;;;;;10.65;5.67;;;;;;;8.24;66.75;101241.58;2279265;77;21047;-85
2022/05/09 02:25:26;;;;;;;11.03;6.15;;;;;;;8.27;66.71;101237.37;2274011;76;21093;-83
2022/05/09 02:28:09;;;;;;;11.90;5.97;;;;;;;8.28;66.60;101239.06;2277264;76;21008;-86
2022/05/09 02:31:10;;;;;;;9.45;4.97;;;;;;;8.26;66.59;101240.50;2284870;77;21442;-82
2022/05/09 02:34:12;;;;;;;12.00;5.62;;;;;;;8.27;66.58;101247.95;2277019;77;20956;-84
2022/05/09 02:37:13;;;;;;;12.95;6.08;;;;;;;8.30;66.58;101243.73;2285372;77;21711;-84
2022/05/09 02:40:17;;;;;;;14.93;6.10;;;;;;;8.32;66.50;101249.73;2276292;76;21043;-88
2022/05/09 02:43:18;;;;;;;10.05;5.42;;;;;;;8.29;66.40;101248.18;2274226;77;21013;-82
2022/05/09 02:46:19;;;;;;;10.82;5.53;;;;;;;8.27;66.38;101258.52;2276067;77;21088;-82
2022/05/09 02:49:20;;;;;;;;;;;;;;;8.19;66.33;101260.94;2281099;76;21442;-84
2022/05/09 02:52:23;;;;;;;15.55;5.47;;;;;;;8.11;66.42;101258.94;2275274;76;20181;-85
2022/05/09 02:55:24;;;;;;;19.87;6.40;;;;;;;8.01;66.52;101262.78;2282017;77;21010;-87
2022/05/09 02:58:26;;;;;;;11.38;5.17;;;;;;;7.97;66.65;101261.81;2296555;77;21015;-87
2022/05/09 03:01:27;;;;;;;13.48;5.55;;;;;;;7.93;66.64;101260.39;2290379;77;21005;-85
2022/05/09 03:04:41;;;;;;;13.10;5.90;;;;;;;7.92;66.61;101264.84;2296131;76;21929;-85
2022/05/09 03:07:47;;;;;;;14.33;5.50;;;;;;;7.88;66.64;101263.38;2288950;76;21518;-82
2022/05/09 03:10:48;;;;;;;10.60;5.20;;;;;;;7.79;66.71;101264.11;2297281;77;21272;-85
2022/05/09 03:13:49;;;;;;;;;;;;;;;7.74;66.78;101261.86;2297266;77;21010;-88
2022/05/09 03:16:51;;;;;;;14.10;5.58;;;;;;;7.69;66.86;101268.46;2295704;77;20143;-85
2022/05/09 03:19:52;;;;;;;;;;;;;;;7.63;67.06;101269.30;2295481;77;21006;-88
2022/05/09 03:22:54;;;;;;;12.20;5.22;;;;;;;7.55;67.11;101273.01;2295589;77;20145;-86
2022/05/09 03:25:55;;;;;;;15.23;6.08;;;;;;;7.51;67.10;101271.55;2292732;77;20982;-85
2022/05/09 03:28:57;;;;;;;11.85;5.37;;;;;;;7.51;67.15;101279.47;2287963;77;21022;-84
2022/05/09 03:31:58;;;;;;;11.63;4.85;;;;;;;7.46;67.45;101282.97;2295039;76;21014;-86
2022/05/09 03:34:59;;;;;;;19.55;5.87;;;;;;;7.41;67.28;101284.64;2289439;77;20966;-85
2022/05/09 03:38:00;;;;;;;;;;;;;;;7.35;67.51;101285.59;2292869;77;20954;-88
2022/05/09 03:41:02;;;;;;;12.50;4.92;;;;;;;7.39;67.50;101290.98;2291782;76;20107;-83
2022/05/09 03:44:05;;;;;;;12.47;4.97;;;;;;;7.49;67.53;101297.26;2295599;76;20919;-85
2022/05/09 03:47:06;;;;;;;13.10;5.83;;;;;;;7.59;67.41;101297.38;2297503;77;20982;-85
2022/05/09 03:50:09;;;;;;;13.98;5.72;;;;;;;7.64;67.45;101298.70;2288643;77;20966;-86
2022/05/09 03:53:11;;;;;;;12.40;4.37;;;;;;;7.73;67.43;101295.83;2291686;77;20994;-86
2022/05/09 03:56:12;;;;;;;12.85;5.20;;;;;;;7.78;67.33;101296.80;2257463;77;21417;-84
2022/05/09 03:59:13;;;;;;;10.32;4.70;;;;;;;7.87;67.25;101293.42;2241001;78;21601;-83
2022/05/09 04:02:14;;;;;;;;;;;;;;;7.97;67.28;101299.67;2243620;78;20971;-86
2022/05/09 04:05:17;;;;;;;15.03;5.22;;;;;;;8.00;67.26;101294.14;2243564;78;20106;-84
2022/05/09 04:08:25;;;;;;;11.55;4.65;;;;;;;8.37;67.32;101301.78;2240849;78;21481;-86
2022/05/09 04:11:23;;;;;;;10.00;4.97;;;;;;;8.74;66.98;101298.81;2239110;78;20965;-83
2022/05/09 04:17:44;;;;;;;12.85;4.25;;;;;;;9.32;66.04;101304.56;2239455;78;21537;-84
2022/05/09 04:20:50;;;;;;;9.68;4.83;;;;;;;9.58;65.49;101298.86;2243565;78;20979;-84
2022/05/09 04:23:55;;;;;;;12.88;6.08;;;;;;;9.81;65.15;101304.81;2243338;78;21063;-84
2022/05/09 04:26:54;;;;;;;13.43;5.15;;;;;;;10.09;65.15;101303.25;2239780;78;20995;-84
2022/05/09 04:29:56;;;;;;;11.65;5.65;;;;;;;10.40;64.85;101308.53;2238357;78;21076;-84
2022/05/09 04:32:58;;;;;;;15.43;5.25;;;;;;;10.75;63.30;101303.53;2236599;78;20970;-84
2022/05/09 04:35:59;;;;;;;12.68;5.35;;;;;;;10.77;63.19;101308.22;2239746;78;21048;-85
2022/05/09 04:39:01;;;;;;;12.00;5.10;;;;;;;10.91;62.74;101305.64;2241331;78;21102;-84
2022/05/09 04:42:03;;;;;;;13.80;5.42;;;;;;;10.99;62.19;101308.44;2233469;78;21466;-84
2022/05/09 04:45:05;;;;;;;7.67;4.80;;;;;;;11.06;61.83;101313.18;2240902;78;21041;-84
2022/05/09 04:48:07;;;;;;;10.08;4.92;;;;;;;11.15;61.74;101315.84;2242533;78;20983;-83
2022/05/09 04:51:09;;;;;;;16.32;5.47;;;;;;;11.26;60.82;101317.98;2238242;78;21180;-82
2022/05/09 04:54:10;;;;;;;11.95;5.53;;;;;;;11.40;61.23;101316.21;2240542;78;20990;-86
2022/05/09 04:57:11;;;;;;;11.12;5.33;;;;;;;11.69;60.62;101320.14;2271786;76;21467;-84
2022/05/09 05:00:16;;;;;;;14.07;5.10;;;;;;;11.99;59.78;101323.05;2275819;77;21070;-82
2022/05/09 05:03:18;;;;;;;8.93;5.33;;;;;;;12.27;60.46;101319.07;2271209;77;21071;-85
2022/05/09 05:06:21;;;;;;;10.00;4.50;;;;;;;12.63;59.87;101324.47;2271104;77;21078;-83
2022/05/09 05:09:22;;;;;;;15.90;5.30;;;;;;;13.14;59.33;101321.60;2268515;77;21003;-84
2022/05/09 05:12:24;;;;;;;11.05;4.90;;;;;;;13.51;59.25;101327.23;2270136;77;21529;-86
2022/05/09 05:15:26;;;;;;;18.98;5.58;;;;;;;14.02;58.57;101326.85;2270575;76;21340;-84
2022/05/09 05:18:28;;;;;;;12.98;4.83;;;;;;;14.52;57.86;101329.57;2270067;76;21034;-84
2022/05/09 05:21:30;;;;;;;9.33;4.15;;;;;;;14.76;56.75;101327.97;2273121;76;21090;-84
2022/05/09 05:24:35;;;;;;;11.50;5.00;;;;;;;14.58;54.80;101330.75;2275535;76;21050;-84
2022/05/09 05:27:36;;;;;;;10.20;4.87;;;;;;;14.49;55.09;101326.36;2272796;77;21011;-85
2022/05/09 05:30:38;;;;;;;9.50;5.03;;;;;;;14.71;55.37;101331.13;2275854;77;20913;-81
2022/05/09 05:33:39;;;;;;;9.75;4.33;;;;;;;14.79;54.31;101330.31;2267058;76;21525;-84
2022/05/09 05:36:40;;;;;;;7.22;4.55;;;;;;;14.83;54.97;101337.48;2273549;77;20946;-83
2022/05/09 05:39:41;;;;;;;10.10;5.12;;;;;;;14.94;53.96;101341.17;2277756;77;21399;-81
2022/05/09 05:42:44;;;;;;;10.23;5.17;;;;;;;14.98;54.56;101334.00;2262745;77;20991;-83
2022/05/09 05:45:48;;;;;;;9.93;5.58;;;;;;;15.23;53.29;101340.67;2264992;76;20979;-82
2022/05/09 05:48:49;;;;;;;12.15;5.62;;;;;;;15.31;53.10;101345.19;2269528;77;20975;-82
2022/05/09 05:51:50;;;;;;;11.75;5.17;;;;;;;15.50;53.53;101340.83;2273282;77;21555;-83
2022/05/09 05:54:51;;;;;;;10.48;5.35;;;;;;;16.00;53.32;101341.59;2275020;76;21486;-83
2022/05/09 05:57:54;;;;;;;10.75;4.50;;;;;;;16.41;52.68;101344.91;2202371;78;21051;-81
2022/05/09 06:00:56;;;;;;;10.75;6.35;;;;;;;16.43;51.48;101347.44;2200018;78;21002;-80
2022/05/09 06:03:57;;;;;;;14.40;5.53;;;;;;;16.38;51.99;101347.12;2203486;78;21092;-84
2022/05/09 06:06:58;;;;;;;11.20;5.70;;;;;;;16.45;51.01;101352.95;2198435;78;20955;-82
2022/05/09 06:09:59;;;;;;;14.07;5.47;;;;;;;16.50;50.98;101355.08;2211834;78;20957;-83
2022/05/09 06:13:03;;;;;;;10.08;5.25;;;;;;;16.68;50.40;101353.49;2202908;78;20989;-83
2022/05/09 06:16:05;;;;;;;10.43;4.95;;;;;;;16.59;48.71;101359.41;2194795;78;20966;-82
2022/05/09 06:19:08;;;;;;;9.63;5.35;;;;;;;16.58;49.34;101364.42;2201653;78;20974;-83
2022/05/09 06:22:10;;;;;;;10.53;5.20;;;;;;;16.66;49.49;101358.19;2206815;78;21007;-83
2022/05/09 06:25:14;;;;;;;10.15;5.12;;;;;;;16.82;49.25;101361.31;2205423;78;21003;-82
2022/05/09 06:28:17;;;;;;;12.68;5.35;;;;;;;16.79;47.35;101361.16;2206215;78;20995;-82
2022/05/09 06:31:19;;;;;;;10.90;5.17;;;;;;;16.91;48.39;101365.61;2197665;78;21006;-84
2022/05/09 06:34:20;;;;;;;10.93;5.15;;;;;;;17.18;48.63;101366.92;2204567;78;21047;-82
2022/05/09 06:37:21;;;;;;;11.78;4.85;;;;;;;17.24;48.25;101374.25;2207418;78;20951;-82
2022/05/09 06:40:22;;;;;;;9.35;4.90;;;;;;;17.47;47.63;101370.19;2201067;78;21002;-84
2022/05/09 06:43:24;;;;;;;9.80;4.90;;;;;;;17.67;48.10;101370.50;2196874;78;21002;-83
2022/05/09 06:46:26;;;;;;;10.08;5.60;;;;;;;17.85;47.26;101372.37;2209001;78;21109;-82
2022/05/09 06:49:27;;;;;;;11.68;4.70;;;;;;;17.82;47.13;101374.09;2199907;78;21039;-83
2022/05/09 06:52:28;;;;;;;13.95;5.35;;;;;;;17.85;46.73;101373.72;2209640;78;21028;-82
2022/05/09 06:55:29;;;;;;;8.25;4.47;;;;;;;18.05;46.99;101370.48;2218837;76;21030;-82
2022/05/09 06:58:31;;;;;;;14.58;5.70;;;;;;;18.28;46.95;101379.26;2270650;77;21012;-82
2022/05/09 07:01:33;;;;;;;11.10;5.10;;;;;;;18.41;44.55;101381.27;2266485;76;21002;-83
2022/05/09 07:04:38;;;;;;;10.30;4.95;;;;;;;18.14;45.46;101376.91;2274464;77;21085;-83
2022/05/09 07:07:40;;;;;;;11.55;5.50;;;;;;;18.24;44.96;101384.66;2270329;76;20907;-83
2022/05/09 07:10:42;;;;;;;11.80;5.70;;;;;;;18.21;45.63;101386.38;2275889;76;21068;-83
2022/05/09 07:13:43;;;;;;;9.58;5.08;;;;;;;18.43;45.32;101384.61;2272609;76;21025;-83
2022/05/09 07:16:44;;;;;;;9.95;4.62;;;;;;;18.50;44.98;101378.82;2267081;77;21039;-83
2022/05/09 07:19:45;;;;;;;13.28;5.12;;;;;;;18.75;44.84;101382.03;2273521;76;21483;-83
2022/05/09 07:22:50;;;;;;;10.28;5.45;;;;;;;19.03;44.38;101383.95;2271198;76;21011;-83
2022/05/09 07:25:55;;;;;;;9.05;5.00;;;;;;;19.40;44.16;101382.02;2271710;76;20976;-84
2022/05/09 07:28:55;;;;;;;8.15;4.87;;;;;;;19.57;43.44;101386.12;2273120;77;20960;-83
2022/05/09 07:31:56;;;;;;;11.73;5.17;;;;;;;19.80;44.40;101381.03;2271443;77;21517;-83
2022/05/09 07:34:57;;;;;;;11.85;4.80;;;;;;;19.97;43.41;101379.69;2274245;77;20978;-83
2022/05/09 07:37:58;;;;;;;10.72;5.17;;;;;;;20.07;42.61;101376.63;2278916;77;21493;-83
2022/05/09 07:41:00;;;;;;;11.68;4.90;;;;;;;20.06;42.59;101379.84;2273863;76;20992;-83
2022/05/09 07:44:01;;;;;;;10.05;5.03;;;;;;;20.18;42.46;101379.27;2274810;77;20974;-83
2022/05/09 07:47:02;;;;;;;14.25;5.58;;;;;;;20.50;42.65;101378.60;2271171;77;21601;-83
2022/05/09 07:50:05;;;;;;;12.30;5.05;;;;;;;20.42;42.05;101377.95;2278053;77;21601;-84
2022/05/09 07:53:13;;;;;;;8.73;5.20;;;;;;;20.51;42.26;101374.86;2274956;77;21705;-84
2022/05/09 07:56:14;;;;;;;12.15;5.10;;;;;;;20.81;41.26;101376.76;2274094;77;21084;-83
2022/05/09 07:59:17;;;;;;;10.38;4.90;;;;;;;20.71;40.50;101380.35;2271852;77;21033;-83
2022/05/09 08:02:18;;;;;;;13.62;5.40;;;;;;;20.32;40.34;101372.39;2271372;76;21050;-84
2022/05/09 08:05:19;;;;;;;9.78;5.03;;;;;;;19.90;40.65;101372.89;2276318;76;21072;-84
2022/05/09 08:08:20;;;;;;;11.53;5.35;;;;;;;20.12;41.17;101373.65;2272370;77;21445;-82
2022/05/09 08:11:22;;;;;;;11.38;5.45;;;;;;;20.15;40.78;101373.77;2275445;77;20951;-83
2022/05/09 08:14:24;;;;;;;10.63;4.78;;;;;;;20.24;41.71;101378.47;2273923;76;21086;-85
2022/05/09 08:17:25;;;;;;;8.80;4.60;;;;;;;20.43;40.59;101378.25;2272407;76;21038;-84
2022/05/09 08:20:26;;;;;;;12.45;4.55;;;;;;;20.41;40.42;101377.09;2272023;77;21024;-84
2022/05/09 08:23:30;;;;;;;11.73;4.75;;;;;;;20.43;40.05;101379.08;2271981;77;20975;-84
2022/05/09 08:26:32;;;;;;;10.80;4.72;;;;;;;20.39;40.27;101379.18;2271930;77;21032;-83
2022/05/09 08:29:33;;;;;;;9.90;4.50;;;;;;;20.55;39.82;101377.52;2269180;76;21089;-84
2022/05/09 08:32:36;;;;;;;10.35;4.65;;;;;;;20.16;39.38;101378.14;2271860;77;21003;-84
2022/05/09 08:35:37;;;;;;;9.88;5.12;;;;;;;20.59;40.31;101379.28;2272972;77;21044;-84
2022/05/09 08:38:38;;;;;;;9.75;4.90;;;;;;;20.73;39.07;101377.47;2275303;76;21071;-83
2022/05/09 08:42:03;;;;;;;17.92;5.20;;;;;;;20.76;38.85;101379.75;2273386;77;21002;-83
2022/05/09 08:45:29;;;;;;;8.95;3.85;;;;;;;20.72;39.37;101381.17;2277663;77;21537;-83
2022/05/09 08:48:59;;;;;;;5.90;3.27;;;;;;;20.89;37.86;101382.49;2270722;77;21044;-84
2022/05/09 08:52:21;;;;;;;5.60;3.20;;;;;;;20.94;36.44;101376.46;2252726;78;21049;-82
2022/05/09 08:55:36;;;;;;;8.68;3.25;;;;;;;20.96;36.46;101377.92;2276220;76;21024;-84
2022/05/09 08:58:49;;;;;;;9.25;3.33;;;;;;;20.69;35.07;101382.93;2266392;76;20959;-83
2022/05/09 09:02:12;;;;;;;10.00;3.37;;;;;;;20.73;36.29;101383.69;2280402;77;20942;-83
2022/05/09 09:05:23;;;;;;;8.75;3.42;;;;;;;20.55;35.78;101386.09;2264907;77;20994;-83
2022/05/09 09:09:03;;;;;;;12.90;3.83;;;;;;;20.56;35.45;101387.26;2269082;76;21482;-84
2022/05/09 09:12:28;;;;;;;9.78;3.40;;;;;;;20.62;36.01;101392.88;2270352;76;21503;-83
2022/05/09 09:15:38;;;;;;;7.87;3.27;;;;;;;20.52;36.17;101390.00;2270070;77;21040;-82
2022/05/09 09:18:59;;;;;;;7.72;3.42;;;;;;;20.76;34.44;101390.54;2264526;77;21557;-83
2022/05/09 09:22:20;;;;;;;7.28;3.45;;;;;;;20.85;35.45;101391.19;2257381;77;20990;-84
2022/05/09 09:25:36;;;;;;;11.60;3.90;;;;;;;20.91;35.79;101394.41;2260582;76;21007;-83
2022/05/09 09:28:49;;;;;;;8.35;3.95;;;;;;;20.84;35.13;101381.44;2266461;77;20990;-84
2022/05/09 09:32:02;;;;;;;9.65;3.50;;;;;;;20.98;35.67;101386.66;2274552;77;21062;-82
2022/05/09 09:35:34;;;;;;;5.83;3.08;;;;;;;21.14;34.63;101384.59;2274766;77;21024;-83
2022/05/09 09:38:54;;;;;;;8.75;3.47;;;;;;;21.04;35.55;101385.00;2269764;77;21043;-84
2022/05/09 09:41:55;;;;;;;9.28;3.60;;;;;;;21.04;35.04;101383.66;2272752;77;21096;-84
2022/05/09 09:44:58;;;;;;;6.12;3.27;;;;;;;21.21;34.28;101382.73;2269929;77;21080;-83
2022/05/09 09:48:21;;;;;;;8.90;3.22;;;;;;;21.10;34.97;101380.65;2266174;77;21018;-83
2022/05/09 09:51:22;;;;;;;7.08;3.40;;;;;;;21.08;34.60;101376.80;2263754;77;20999;-83
2022/05/09 09:54:33;;;;;;;6.00;3.75;;;;;;;20.92;34.55;101383.42;2269157;76;21517;-84
2022/05/09 09:57:38;;;;;;;6.78;3.70;;;;;;;20.79;34.71;101369.91;2270480;76;21022;-83
2022/05/09 10:00:39;;;;;;;8.23;3.15;;;;;;;20.96;35.77;101377.92;2269382;77;21505;-84
2022/05/09 10:03:48;;;;;;;7.40;3.47;;;;;;;21.04;35.58;101377.73;2274317;77;20992;-83
2022/05/09 10:07:09;;;;;;;7.67;3.55;;;;;;;21.14;35.58;101370.56;2270468;77;21526;-83
2022/05/09 10:10:21;;;;;;;10.32;3.67;;;;;;;21.18;33.66;101366.96;2267560;77;21067;-84
2022/05/09 10:13:23;;;;;;;8.40;3.62;;;;;;;21.10;34.51;101375.25;2270558;77;20966;-84
2022/05/09 10:16:48;;;;;;;6.97;3.35;;;;;;;21.01;34.78;101371.92;2269608;77;21451;-84
2022/05/09 10:19:51;;;;;;;10.38;3.12;;;;;;;21.20;35.53;101361.67;2271358;77;21020;-84
2022/05/09 10:26:25;;;;;;;5.58;3.20;;;;;;;21.67;34.15;101355.74;2268188;77;21059;-84
2022/05/09 10:29:32;;;;;;;8.28;3.52;;;;;;;21.71;35.39;101355.65;2269604;76;21006;-85
2022/05/09 10:32:55;;;;;;;7.60;3.75;;;;;;;21.59;34.34;101355.13;2270140;76;21277;-83
2022/05/09 10:36:01;;;;;;;11.22;4.05;;;;;;;21.46;35.03;101355.99;2272606;77;20976;-83
2022/05/09 10:39:13;;;;;;;11.35;3.83;;;;;;;21.30;35.28;101351.80;2271716;77;21114;-83
2022/05/09 10:42:20;;;;;;;9.55;3.75;;;;;;;21.68;35.79;101347.11;2270468;77;20979;-83
2022/05/09 10:45:25;;;;;;;8.00;3.65;;;;;;;21.83;34.94;101352.30;2270492;77;21033;-83
2022/05/09 10:48:40;;;;;;;6.67;3.67;;;;;;;21.51;34.68;101341.84;2263347;77;20968;-83
2022/05/09 10:51:56;;;;;;;6.25;3.22;;;;;;;21.09;34.51;101345.23;2272436;77;21048;-83
2022/05/09 10:55:06;;;;;;;6.62;3.12;;;;;;;20.93;35.05;101342.44;2257636;77;21580;-84
2022/05/09 10:58:33;;;;;;;9.05;3.95;;;;;;;21.22;34.97;101337.16;2270092;77;21531;-82
2022/05/09 11:01:38;;;;;;;9.90;3.85;;;;;;;21.46;36.39;101335.74;2256161;77;20947;-83
2022/05/09 11:04:39;;;;;;;8.25;3.87;;;;;;;21.35;35.28;101342.56;2266971;77;21023;-82
2022/05/09 11:07:58;;;;;;;9.50;4.20;;;;;;;20.96;34.91;101337.98;2270933;77;21061;-83
2022/05/09 11:11:15;;;;;;;9.80;3.80;;;;;;;21.09;36.33;101333.09;2271966;77;20956;-82
2022/05/09 11:14:59;;;;;;;10.25;4.15;;;;;;;21.47;34.60;101335.52;2275734;76;21091;-82
2022/05/09 11:18:34;;;;;;;7.80;3.58;;;;;;;21.48;35.49;101329.59;2277358;77;21027;-84
2022/05/09 11:21:59;;;;;;;8.65;3.58;;;;;;;20.68;33.90;101326.00;2267739;77;21052;-83
2022/05/09 11:25:49;;;;;;;8.05;3.50;;;;;;;20.02;34.78;101331.93;2274966;76;20969;-84
2022/05/09 11:29:23;;;;;;;;;;;;;;;20.28;35.09;101324.50;2271253;77;21056;-84
2022/05/09 11:32:38;;;;;;;9.23;3.72;;;;;;;20.74;34.34;101322.48;2265408;77;20121;-83
2022/05/09 11:35:40;;;;;;;7.12;3.40;;;;;;;20.24;34.56;101326.75;2263426;77;21001;-83
2022/05/09 11:39:04;;;;;;;9.40;3.40;;;;;;;20.17;35.22;101319.17;2275346;76;21031;-82
2022/05/09 11:46:17;;;;;;;6.53;3.05;;;;;;;21.08;33.55;101309.34;2278591;77;21084;-82
2022/05/09 11:49:41;;;;;;;7.45;3.50;;;;;;;21.35;34.47;101299.38;2275464;77;21227;-83
2022/05/09 11:52:45;;;;;;;6.67;3.08;;;;;;;21.63;32.91;101299.15;2264858;77;21033;-83
2022/05/09 11:55:48;;;;;;;12.25;3.35;;;;;;;21.18;33.57;101299.49;2263908;77;20990;-81
2022/05/09 11:58:50;;;;;;;8.13;3.33;;;;;;;20.64;33.37;101297.77;2274030;77;21091;-83
2022/05/09 12:01:57;;;;;;;6.83;3.05;;;;;;;19.94;34.13;101293.89;2269731;77;21011;-82
2022/05/09 12:04:58;;;;;;;7.72;3.50;;;;;;;19.64;34.20;101297.31;2271806;77;21043;-81
2022/05/09 12:08:21;;;;;;;7.95;3.55;;;;;;;19.40;34.46;101293.20;2263326;77;20952;-82
2022/05/09 12:11:46;;;;;;;7.30;3.50;;;;;;;19.43;34.39;101292.33;2275768;76;21039;-82
2022/05/09 12:14:50;;;;;;;5.70;3.08;;;;;;;19.92;34.82;101282.48;2267102;77;21584;-81
2022/05/09 12:18:09;;;;;;;7.90;3.08;;;;;;;20.31;34.71;101286.37;2267737;76;20959;-82
2022/05/09 12:21:19;;;;;;;5.83;3.15;;;;;;;20.51;33.96;101286.42;2244639;77;21354;-83
2022/05/09 12:24:26;;;;;;;8.60;2.90;;;;;;;20.48;32.33;101282.27;2265864;76;21123;-81
2022/05/09 12:27:45;;;;;;;6.70;2.65;;;;;;;20.37;31.71;101278.81;2271003;76;21006;-83
2022/05/09 12:31:04;;;;;;;12.03;3.33;;;;;;;20.53;33.49;101287.91;2270825;77;20924;-82
2022/05/09 12:34:08;;;;;;;6.70;2.90;;;;;;;20.79;33.01;101274.16;2272435;77;21119;-83
2022/05/09 12:37:17;;;;;;;7.83;3.20;;;;;;;20.88;32.07;101274.78;2269776;77;20975;-82
2022/05/09 12:40:24;;;;;;;6.87;3.12;;;;;;;20.80;33.56;101265.02;2264764;76;21469;-83
2022/05/09 12:43:25;;;;;;;7.90;3.35;;;;;;;20.85;32.49;101269.28;2272355;76;20962;-82
2022/05/09 12:46:35;;;;;;;6.92;3.12;;;;;;;20.65;34.02;101272.48;2282178;77;21790;-83
2022/05/09 12:49:50;;;;;;;7.83;2.73;;;;;;;20.73;33.77;101260.97;2270092;76;20960;-82
2022/05/09 12:52:56;;;;;;;7.00;3.22;;;;;;;20.95;33.14;101262.14;2268664;77;21065;-82
2022/05/09 12:55:57;;;;;;;4.12;2.58;;;;;;;20.88;33.63;101266.69;2273148;76;20942;-83
2022/05/09 12:59:07;;;;;;;6.87;2.77;;;;;;;20.91;33.25;101256.30;2275734;77;20992;-82
2022/05/09 13:02:08;;;;;;;8.70;3.12;;;;;;;20.69;33.02;101258.36;2265675;77;20968;-83
2022/05/09 13:05:13;;;;;;;11.40;3.50;;;;;;;20.90;32.84;101241.70;2267234;75;21030;-82
2022/05/09 13:08:15;;;;;;;8.88;3.10;;;;;;;20.87;32.86;101238.89;2264446;77;21491;-82
2022/05/09 13:11:24;;;;;;;8.80;2.83;;;;;;;20.73;32.30;101243.45;2269630;77;21007;-82
2022/05/09 13:14:56;;;;;;;8.28;2.80;;;;;;;20.55;32.58;101235.97;2271523;77;21603;-82
2022/05/09 13:18:07;;;;;;;7.95;3.15;;;;;;;20.52;33.33;101228.23;2271767;77;21051;-83
2022/05/09 13:21:09;;;;;;;6.45;2.47;;;;;;;20.54;34.40;101230.25;2267389;77;20971;-82
2022/05/09 13:24:30;;;;;;;8.35;3.35;;;;;;;20.57;33.95;101227.14;2267504;76;20967;-81
2022/05/09 13:27:31;;;;;;;7.17;3.00;;;;;;;20.54;33.59;101218.64;2268646;75;21043;-83
2022/05/09 13:30:36;;;;;;;7.42;2.75;;;;;;;20.50;33.03;101211.45;2274700;77;20996;-83
2022/05/09 13:33:43;;;;;;;10.90;3.05;;;;;;;20.63;33.41;101217.39;2269463;76;21000;-82
2022/05/09 13:36:47;;;;;;;7.85;2.85;;;;;;;20.68;34.10;101208.17;2271676;77;21031;-82
2022/05/09 13:39:48;;;;;;;7.15;2.90;;;;;;;20.64;33.00;101197.99;2268074;77;21032;-83
2022/05/09 13:42:52;;;;;;;9.10;3.10;;;;;;;20.38;33.16;101200.95;2269377;77;20966;-81
2022/05/09 13:46:14;;;;;;;7.70;2.75;;;;;;;20.48;33.04;101186.56;2269086;77;21027;-82
2022/05/09 13:49:18;;;;;;;6.05;2.83;;;;;;;20.66;33.02;101187.31;2270508;75;21550;-82
2022/05/09 13:52:30;;;;;;;16.87;3.75;;;;;;;20.57;32.89;101185.34;2264319;77;20972;-83
2022/05/09 13:55:42;;;;;;;9.65;2.98;;;;;;;20.48;33.15;101179.83;2263487;76;20988;-83
2022/05/09 13:58:45;;;;;;;5.20;2.83;;;;;;;20.34;32.66;101188.41;2266947;77;20985;-82
2022/05/09 14:01:50;;;;;;;8.65;2.98;;;;;;;20.21;32.75;101178.12;2277950;76;21042;-83
2022/05/09 14:05:15;;;;;;;6.55;2.87;;;;;;;20.09;32.95;101178.72;2269491;77;22085;-82
2022/05/09 14:08:18;;;;;;;9.93;2.72;;;;;;;20.02;32.73;101171.16;2270580;77;20997;-82
2022/05/09 14:11:33;;;;;;;5.12;2.55;;;;;;;19.88;33.03;101166.25;2277099;76;21056;-80
2022/05/09 14:14:43;;;;;;;7.45;3.22;;;;;;;19.88;32.78;101164.08;2278492;77;21058;-80
2022/05/09 14:17:54;;;;;;;6.78;2.55;;;;;;;19.77;33.10;101157.41;2272821;77;21060;-80
2022/05/09 14:21:06;;;;;;;7.40;2.77;;;;;;;19.82;33.66;101160.33;2276789;77;20996;-80
2022/05/09 14:24:11;;;;;;;12.43;2.92;;;;;;;19.85;32.95;101156.38;2278501;77;21030;-82
2022/05/09 14:30:41;;;;;;;7.95;3.25;;;;;;;19.76;33.28;101147.65;2278544;77;21026;-81
2022/05/09 14:33:42;;;;;;;7.20;2.72;;;;;;;19.79;33.42;101149.11;2274048;77;21021;-81
2022/05/09 14:36:43;;;;;;;5.58;2.67;;;;;;;19.74;33.46;101144.84;2267624;76;21398;-81
2022/05/09 14:39:58;;;;;;;5.53;2.58;;;;;;;19.77;33.27;101140.42;2280002;76;21029;-81
2022/05/09 14:43:09;;;;;;;3.65;2.47;;;;;;;19.88;33.61;101146.57;2271785;77;20944;-80